Time;durP1;ratioP1;P1;durP2;ratioP2;P2;SDS_P1;SDS_P2;PMS_P1;PMS_P2;Temp;Humidity;BMP_temperature;BMP_pressure;BME280_temperature;BME280_humidity;BME280_pressure;Samples;Min_cycle;Max_cycle;Signal;HPM_P1;HPM_P2
2023/12/24 05:00:40;;;;;;;0.20;0.20;;;8.70;99.90;;;;;;5679825;23;21036;-75
2023/12/24 05:03:06;;;;;;;0.20;0.20;;;8.80;99.90;;;;;;4916830;29;20237;-75
2023/12/24 05:05:33;;;;;;;0.38;0.25;;;8.80;99.90;;;;;;4922817;29;20235;-75
2023/12/24 05:08:00;;;;;;;0.30;0.30;;;8.80;99.90;;;;;;4928615;29;20207;-76
2023/12/24 05:10:27;;;;;;;0.40;0.40;;;8.80;99.90;;;;;;4923744;29;20212;-76
2023/12/24 05:12:54;;;;;;;0.30;0.30;;;8.80;99.90;;;;;;4919620;29;20226;-75
2023/12/24 05:15:20;;;;;;;0.82;0.70;;;8.80;99.90;;;;;;4918822;29;20593;-76
2023/12/24 05:17:48;;;;;;;0.30;0.30;;;8.80;99.90;;;;;;4927644;29;20210;-76
2023/12/24 05:20:15;;;;;;;0.25;0.25;;;8.80;99.90;;;;;;4928265;29;20215;-75
2023/12/24 05:22:41;;;;;;;0.30;0.30;;;8.80;99.90;;;;;;4917003;29;20742;-75
2023/12/24 05:25:08;;;;;;;0.43;0.40;;;8.80;99.90;;;;;;4918743;29;20234;-75
2023/12/24 05:27:34;;;;;;;0.25;0.25;;;8.80;99.90;;;;;;4914913;29;20220;-75
2023/12/24 05:30:01;;;;;;;0.25;0.25;;;8.80;99.90;;;;;;4918841;29;20208;-76
2023/12/24 05:32:28;;;;;;;0.30;0.30;;;8.80;99.90;;;;;;4918766;29;20235;-75
2023/12/24 05:34:56;;;;;;;0.40;0.40;;;8.80;99.90;;;;;;4919929;29;20207;-75
2023/12/24 05:37:22;;;;;;;0.20;0.20;;;8.80;99.90;;;;;;4917019;29;20211;-75
2023/12/24 05:39:49;;;;;;;0.30;0.30;;;8.80;99.90;;;;;;4920688;29;20216;-75
2023/12/24 05:42:16;;;;;;;0.30;0.30;;;8.80;99.90;;;;;;4925716;29;20238;-75
2023/12/24 05:44:42;;;;;;;0.50;0.50;;;8.80;99.90;;;;;;4924686;29;20226;-76
2023/12/24 05:47:09;;;;;;;4.18;0.52;;;8.90;99.90;;;;;;4924035;29;20232;-76
2023/12/24 05:49:38;;;;;;;0.20;0.20;;;8.80;99.90;;;;;;4916530;29;20207;-75
2023/12/24 05:52:07;;;;;;;0.50;0.50;;;8.90;99.90;;;;;;4920158;29;20236;-75
2023/12/24 05:54:33;;;;;;;0.60;0.60;;;8.90;99.90;;;;;;4923769;29;20239;-75
2023/12/24 05:57:00;;;;;;;0.35;0.35;;;8.90;99.90;;;;;;4921528;29;20676;-75
2023/12/24 05:59:27;;;;;;;0.25;0.25;;;8.90;99.90;;;;;;4921821;29;20219;-75
2023/12/24 06:01:53;;;;;;;0.40;0.40;;;8.90;99.90;;;;;;4922178;29;20237;-76
2023/12/24 06:04:20;;;;;;;0.28;0.28;;;8.90;99.90;;;;;;4918682;29;20606;-76
2023/12/24 06:06:47;;;;;;;0.40;0.40;;;8.90;99.90;;;;;;4916557;29;20215;-75
2023/12/24 06:09:15;;;;;;;0.40;0.40;;;8.90;99.90;;;;;;4919996;29;20206;-75
2023/12/24 06:11:41;;;;;;;0.30;0.30;;;8.90;99.90;;;;;;4921018;29;20793;-75
2023/12/24 06:14:08;;;;;;;0.20;0.20;;;8.90;99.90;;;;;;4923013;29;20211;-76
2023/12/24 06:16:35;;;;;;;0.28;0.28;;;8.90;99.90;;;;;;4923837;29;20203;-75
2023/12/24 06:19:01;;;;;;;0.40;0.40;;;8.90;99.90;;;;;;4919191;29;20588;-75
2023/12/24 06:21:28;;;;;;;0.20;0.20;;;8.90;99.90;;;;;;4919014;29;20620;-75
2023/12/24 06:23:55;;;;;;;0.65;0.45;;;8.90;99.90;;;;;;4919256;29;20203;-75
2023/12/24 06:26:23;;;;;;;0.30;0.30;;;8.90;99.90;;;;;;4922346;29;20601;-75
2023/12/24 06:28:50;;;;;;;0.50;0.50;;;8.90;99.90;;;;;;4923190;29;20699;-75
2023/12/24 06:31:21;;;;;;;0.50;0.50;;;8.90;99.90;;;;;;4923185;29;20235;-76
2023/12/24 06:33:48;;;;;;;0.30;0.30;;;8.90;99.90;;;;;;4925379;29;20738;-74
2023/12/24 06:36:15;;;;;;;0.20;0.20;;;8.90;99.90;;;;;;4920777;29;20298;-75
2023/12/24 06:38:41;;;;;;;0.30;0.30;;;8.90;99.90;;;;;;4922824;29;20218;-75
2023/12/24 06:41:08;;;;;;;0.40;0.40;;;8.90;99.90;;;;;;4920781;29;20234;-75
2023/12/24 06:43:37;;;;;;;0.40;0.40;;;9.00;99.90;;;;;;4920492;29;20204;-75
2023/12/24 06:46:06;;;;;;;0.35;0.32;;;8.90;99.90;;;;;;4924074;29;20233;-75
2023/12/24 06:48:33;;;;;;;0.50;0.50;;;8.90;99.90;;;;;;4921403;29;20608;-75
2023/12/24 06:50:59;;;;;;;0.30;0.30;;;8.90;99.90;;;;;;4927030;29;20250;-75
2023/12/24 06:53:26;;;;;;;0.30;0.30;;;8.90;99.90;;;;;;4919864;29;20210;-75
2023/12/24 06:55:53;;;;;;;0.40;0.40;;;8.90;99.90;;;;;;4924952;29;20222;-75
2023/12/24 06:58:19;;;;;;;0.20;0.20;;;9.00;99.90;;;;;;4920061;29;20648;-74
2023/12/24 07:00:47;;;;;;;0.32;0.32;;;9.00;99.90;;;;;;4931265;29;20247;-75
2023/12/24 07:03:14;;;;;;;1.00;0.40;;;9.00;99.90;;;;;;4923474;29;20215;-75
2023/12/24 07:05:42;;;;;;;0.22;0.22;;;9.00;99.90;;;;;;4925004;29;20232;-76
2023/12/24 07:08:08;;;;;;;0.50;0.50;;;9.00;99.90;;;;;;4921784;29;20236;-76
2023/12/24 07:10:35;;;;;;;0.30;0.30;;;9.00;99.90;;;;;;4923842;29;20262;-76
2023/12/24 07:13:02;;;;;;;0.45;0.28;;;9.00;99.90;;;;;;4919000;29;20300;-76
2023/12/24 07:15:31;;;;;;;0.30;0.30;;;9.00;99.90;;;;;;4923421;29;20222;-75
2023/12/24 07:17:59;;;;;;;0.45;0.45;;;9.00;99.90;;;;;;4920775;29;20211;-76
2023/12/24 07:20:26;;;;;;;0.35;0.35;;;9.00;99.90;;;;;;4919857;29;20208;-76
2023/12/24 07:22:52;;;;;;;0.50;0.50;;;9.00;99.90;;;;;;4927115;29;20223;-76
2023/12/24 07:25:19;;;;;;;0.55;0.55;;;9.00;99.90;;;;;;4922251;29;20224;-75
2023/12/24 07:27:45;;;;;;;0.20;0.20;;;9.00;99.90;;;;;;4925232;29;20214;-76
2023/12/24 07:30:13;;;;;;;0.20;0.20;;;9.00;99.90;;;;;;4924679;29;20219;-75
2023/12/24 07:32:44;;;;;;;0.25;0.25;;;9.00;99.90;;;;;;4925571;29;20693;-76
2023/12/24 07:35:12;;;;;;;0.30;0.20;;;9.00;99.90;;;;;;4926458;29;20682;-75
2023/12/24 07:37:39;;;;;;;0.20;0.20;;;9.00;99.90;;;;;;4927032;29;20293;-75
2023/12/24 07:40:08;;;;;;;0.40;0.40;;;9.10;99.90;;;;;;4916823;29;20215;-76
2023/12/24 07:42:35;;;;;;;0.20;0.20;;;9.00;99.90;;;;;;4923538;29;20208;-76
2023/12/24 07:45:03;;;;;;;0.40;0.40;;;9.10;99.90;;;;;;4926299;29;20219;-74
2023/12/24 07:47:29;;;;;;;0.20;0.20;;;9.10;99.90;;;;;;4920886;29;20212;-74
2023/12/24 07:49:56;;;;;;;0.22;0.22;;;9.00;99.90;;;;;;4926018;29;20223;-75
2023/12/24 07:52:24;;;;;;;0.55;0.55;;;9.00;99.90;;;;;;4917089;29;20333;-75
2023/12/24 07:54:51;;;;;;;0.25;0.25;;;9.00;99.90;;;;;;4924856;29;20224;-74
2023/12/24 07:57:18;;;;;;;0.50;0.50;;;9.10;99.90;;;;;;4926020;29;20279;-73
2023/12/24 07:59:45;;;;;;;0.30;0.30;;;9.10;99.90;;;;;;4921772;29;20218;-74
2023/12/24 08:02:11;;;;;;;0.20;0.20;;;9.10;99.90;;;;;;4916399;29;20742;-74
2023/12/24 08:04:38;;;;;;;0.30;0.30;;;9.10;99.90;;;;;;4925069;29;20222;-74
2023/12/24 08:07:05;;;;;;;0.20;0.20;;;9.20;99.90;;;;;;4930602;29;20233;-73
2023/12/24 08:09:33;;;;;;;0.43;0.43;;;9.20;99.90;;;;;;4919854;29;20214;-74
2023/12/24 08:12:00;;;;;;;0.60;0.60;;;9.20;99.90;;;;;;4921158;29;20224;-74
2023/12/24 08:14:26;;;;;;;2.35;1.00;;;9.20;99.90;;;;;;4919276;29;20467;-74
2023/12/24 08:16:53;;;;;;;1.10;1.10;;;9.20;99.90;;;;;;4923851;29;20237;-74
2023/12/24 08:19:20;;;;;;;2.38;1.77;;;9.20;99.90;;;;;;4921262;29;20306;-74
2023/12/24 08:21:46;;;;;;;0.47;0.47;;;9.20;99.90;;;;;;4922987;29;20242;-74
2023/12/24 08:24:13;;;;;;;0.68;0.63;;;9.20;99.90;;;;;;4924822;29;20215;-74
2023/12/24 08:26:42;;;;;;;0.50;0.50;;;9.20;99.90;;;;;;4920879;29;20233;-74
2023/12/24 08:29:08;;;;;;;0.38;0.38;;;9.30;99.90;;;;;;4920716;29;20275;-74
2023/12/24 08:31:35;;;;;;;0.30;0.30;;;9.30;99.90;;;;;;4924519;29;20249;-74
2023/12/24 08:34:02;;;;;;;0.60;0.60;;;9.30;99.90;;;;;;4922831;29;20212;-74
2023/12/24 08:36:29;;;;;;;0.20;0.20;;;9.30;99.90;;;;;;4920646;29;20220;-74
2023/12/24 08:38:55;;;;;;;0.45;0.45;;;9.30;99.90;;;;;;4922615;29;20206;-74
2023/12/24 08:41:22;;;;;;;0.30;0.30;;;9.30;99.90;;;;;;4919514;29;20227;-74
2023/12/24 08:43:50;;;;;;;0.30;0.30;;;9.30;99.90;;;;;;4922627;29;20320;-74
2023/12/24 08:46:17;;;;;;;0.28;0.28;;;9.30;99.90;;;;;;4915849;29;20692;-74
2023/12/24 08:48:44;;;;;;;0.55;0.55;;;9.40;99.90;;;;;;4921994;29;20223;-74
2023/12/24 08:51:10;;;;;;;0.38;0.38;;;9.40;99.90;;;;;;4924953;29;20857;-73
2023/12/24 08:53:37;;;;;;;0.20;0.20;;;9.40;99.90;;;;;;4924686;29;20299;-74
2023/12/24 08:56:04;;;;;;;0.50;0.50;;;9.40;99.90;;;;;;4922428;29;20216;-74
2023/12/24 08:58:31;;;;;;;0.20;0.20;;;9.40;99.90;;;;;;4924565;29;20225;-74
2023/12/24 09:00:59;;;;;;;0.43;0.43;;;9.50;99.90;;;;;;4923449;29;20553;-74
2023/12/24 09:03:26;;;;;;;0.30;0.30;;;9.50;99.90;;;;;;4922136;29;20221;-74
2023/12/24 09:05:52;;;;;;;0.20;0.20;;;9.50;99.90;;;;;;4927239;29;20274;-74
2023/12/24 09:08:19;;;;;;;0.30;0.30;;;9.60;99.90;;;;;;4922580;29;20208;-74
2023/12/24 09:10:46;;;;;;;0.20;0.20;;;9.50;99.90;;;;;;4920731;29;20227;-74
2023/12/24 09:13:12;;;;;;;0.20;0.20;;;9.60;99.90;;;;;;4926729;29;20233;-74
2023/12/24 09:15:39;;;;;;;0.20;0.20;;;9.60;99.90;;;;;;4918760;29;20215;-74
2023/12/24 09:18:07;;;;;;;0.20;0.20;;;9.60;99.90;;;;;;4925578;29;20550;-74
2023/12/24 09:20:34;;;;;;;0.38;0.38;;;9.60;99.90;;;;;;4924227;29;20237;-74
2023/12/24 09:23:01;;;;;;;0.28;0.28;;;9.60;99.90;;;;;;4924648;29;20212;-74
2023/12/24 09:25:27;;;;;;;0.20;0.20;;;9.60;99.90;;;;;;4924378;29;20213;-74
2023/12/24 09:27:54;;;;;;;0.28;0.28;;;9.70;99.90;;;;;;4922607;29;20216;-74
2023/12/24 09:30:21;;;;;;;0.50;0.50;;;9.70;99.90;;;;;;4925165;29;20220;-73
2023/12/24 09:32:48;;;;;;;0.22;0.22;;;9.70;99.90;;;;;;4926654;29;20692;-74
2023/12/24 09:35:16;;;;;;;0.40;0.40;;;9.70;99.90;;;;;;4923606;29;20231;-74
2023/12/24 09:37:42;;;;;;;0.20;0.20;;;9.70;99.90;;;;;;4922931;29;20209;-74
2023/12/24 09:40:10;;;;;;;0.32;0.32;;;9.80;99.90;;;;;;4927367;29;20237;-74
2023/12/24 09:42:38;;;;;;;1.05;0.95;;;9.80;99.90;;;;;;4924404;29;20305;-74
2023/12/24 09:45:06;;;;;;;1.42;0.47;;;9.80;99.90;;;;;;4921061;29;20221;-74
2023/12/24 09:47:32;;;;;;;0.32;0.30;;;9.80;99.90;;;;;;4924173;29;20575;-74
2023/12/24 09:50:00;;;;;;;0.40;0.20;;;9.90;99.90;;;;;;4926175;29;20296;-74
2023/12/24 09:52:29;;;;;;;0.32;0.20;;;9.90;99.90;;;;;;4920480;29;20379;-73
2023/12/24 09:54:56;;;;;;;0.52;0.30;;;9.90;99.90;;;;;;4922478;29;20224;-74
2023/12/24 09:57:23;;;;;;;0.88;0.88;;;9.90;99.90;;;;;;4923437;29;20209;-74
2023/12/24 09:59:50;;;;;;;0.30;0.30;;;9.90;99.90;;;;;;4923646;29;20208;-73
2023/12/24 10:02:16;;;;;;;0.20;0.20;;;9.90;99.90;;;;;;4924673;29;20236;-73
2023/12/24 10:04:44;;;;;;;0.50;0.50;;;10.00;99.90;;;;;;4917977;29;20213;-73
2023/12/24 10:07:10;;;;;;;0.40;0.40;;;10.00;99.90;;;;;;4915315;29;20642;-73
2023/12/24 10:09:49;;;;;;;0.80;0.47;;;10.00;99.90;;;;;;4915321;29;20226;-73
2023/12/24 10:12:16;;;;;;;0.43;0.38;;;10.00;99.90;;;;;;4914098;29;20320;-73
2023/12/24 10:14:54;;;;;;;0.32;0.32;;;10.10;99.90;;;;;;4922249;29;20295;-73
2023/12/24 10:17:28;;;;;;;0.35;0.35;;;10.10;99.90;;;;;;4913914;29;20347;-73
2023/12/24 10:19:54;;;;;;;0.75;0.75;;;10.10;99.90;;;;;;4914795;29;20217;-73
2023/12/24 10:22:24;;;;;;;0.30;0.30;;;10.10;99.90;;;;;;4913809;29;20240;-72
2023/12/24 10:25:00;;;;;;;2.00;1.90;;;10.20;99.90;;;;;;4914445;29;20363;-73
2023/12/24 10:27:27;;;;;;;0.20;0.20;;;10.20;99.90;;;;;;4914011;29;20234;-73
2023/12/24 10:29:55;;;;;;;0.50;0.50;;;10.30;99.90;;;;;;4915553;29;20218;-73
2023/12/24 10:32:24;;;;;;;0.55;0.55;;;10.30;99.90;;;;;;4917853;29;20252;-73
2023/12/24 10:34:57;;;;;;;0.45;0.20;;;10.30;99.90;;;;;;4919962;29;20232;-73
2023/12/24 10:37:26;;;;;;;0.30;0.30;;;10.30;99.90;;;;;;4919666;29;20205;-73
2023/12/24 10:39:55;;;;;;;0.88;0.88;;;10.30;99.90;;;;;;4917080;29;20214;-74
2023/12/24 10:42:21;;;;;;;0.20;0.20;;;10.30;99.90;;;;;;4917309;29;20229;-74
2023/12/24 10:44:48;;;;;;;0.40;0.40;;;10.40;99.90;;;;;;4921008;29;20218;-73
2023/12/24 10:47:15;;;;;;;0.20;0.20;;;10.40;99.90;;;;;;4916790;29;20235;-73
2023/12/24 10:49:41;;;;;;;0.35;0.35;;;10.40;99.90;;;;;;4916907;29;20634;-73
2023/12/24 10:52:08;;;;;;;0.60;0.60;;;10.50;99.90;;;;;;4922380;29;20260;-73
2023/12/24 10:54:35;;;;;;;0.45;0.45;;;10.50;99.90;;;;;;4917128;29;20410;-74
2023/12/24 10:57:14;;;;;;;0.28;0.28;;;10.50;99.90;;;;;;4923723;29;20209;-74
2023/12/24 11:00:03;;;;;;;0.30;0.30;;;10.50;99.90;;;;;;4923571;29;20834;-73
2023/12/24 11:02:31;;;;;;;1.38;0.50;;;10.50;99.90;;;;;;4917123;29;20242;-73
2023/12/24 11:04:58;;;;;;;0.35;0.35;;;10.60;99.90;;;;;;4917336;29;20221;-73
2023/12/24 11:07:50;;;;;;;0.47;0.47;;;10.60;99.90;;;;;;4916637;29;20322;-74
2023/12/24 11:10:53;;;;;;;0.45;0.45;;;10.60;99.90;;;;;;4915779;29;20206;-73
2023/12/24 11:13:46;;;;;;;0.43;0.40;;;10.60;99.90;;;;;;4879364;29;20219;-73
2023/12/24 11:16:13;;;;;;;0.20;0.20;;;10.60;99.90;;;;;;4915708;29;20244;-73
2023/12/24 11:18:44;;;;;;;2.65;1.88;;;10.60;99.90;;;;;;4920581;29;20214;-74
2023/12/24 11:21:12;;;;;;;0.30;0.30;;;10.70;99.90;;;;;;4922332;29;20237;-73
2023/12/24 11:23:40;;;;;;;0.40;0.40;;;10.70;99.90;;;;;;4921945;29;20542;-73
2023/12/24 11:26:31;;;;;;;0.30;0.30;;;10.70;99.90;;;;;;4921902;29;20304;-73
2023/12/24 11:28:59;;;;;;;0.30;0.30;;;10.70;99.90;;;;;;4918254;29;20686;-73
2023/12/24 11:31:27;;;;;;;0.40;0.40;;;10.70;99.90;;;;;;4923736;29;20223;-73
2023/12/24 11:33:55;;;;;;;0.40;0.40;;;10.70;99.90;;;;;;4921440;29;20216;-73
2023/12/24 11:36:22;;;;;;;1.05;0.30;;;10.70;99.90;;;;;;4923767;29;20272;-74
2023/12/24 11:38:54;;;;;;;0.35;0.35;;;10.70;99.90;;;;;;4916260;29;20244;-74
2023/12/24 11:41:23;;;;;;;0.50;0.50;;;10.70;99.90;;;;;;4922128;29;20311;-74
2023/12/24 11:43:55;;;;;;;0.52;0.30;;;10.80;99.90;;;;;;4917213;29;20234;-74
2023/12/24 11:46:24;;;;;;;0.85;0.50;;;10.80;99.90;;;;;;4918934;29;20214;-74
2023/12/24 11:48:51;;;;;;;0.50;0.50;;;10.80;99.90;;;;;;4921339;29;20206;-74
2023/12/24 11:51:22;;;;;;;0.65;0.45;;;10.80;99.90;;;;;;4917962;29;20527;-73
2023/12/24 11:53:49;;;;;;;0.30;0.30;;;10.80;99.90;;;;;;4923194;29;20210;-73
2023/12/24 11:56:17;;;;;;;0.30;0.30;;;10.90;99.90;;;;;;4930280;29;20206;-74
2023/12/24 11:58:58;;;;;;;0.50;0.50;;;10.80;99.90;;;;;;4924977;29;20229;-74
2023/12/24 12:01:28;;;;;;;0.43;0.43;;;10.80;99.90;;;;;;4919936;29;20264;-74
2023/12/24 12:03:57;;;;;;;0.85;0.85;;;10.90;99.90;;;;;;4915863;29;20214;-73
2023/12/24 12:06:24;;;;;;;0.50;0.50;;;10.90;99.90;;;;;;4921237;29;20301;-74
2023/12/24 12:08:50;;;;;;;0.40;0.20;;;10.90;99.90;;;;;;4917440;29;20210;-73
2023/12/24 12:11:17;;;;;;;0.43;0.43;;;10.90;99.90;;;;;;4917235;29;22076;-73
2023/12/24 12:13:44;;;;;;;0.30;0.30;;;10.90;99.90;;;;;;4925588;29;20577;-73
2023/12/24 12:16:10;;;;;;;0.30;0.30;;;10.90;99.90;;;;;;4916716;29;20221;-74
2023/12/24 12:18:39;;;;;;;0.30;0.30;;;10.90;99.90;;;;;;4922475;29;20205;-73
2023/12/24 12:21:10;;;;;;;0.50;0.50;;;10.90;99.90;;;;;;4924740;29;20334;-73
2023/12/24 12:23:37;;;;;;;0.65;0.40;;;10.90;99.90;;;;;;4915418;29;20240;-73
2023/12/24 12:26:04;;;;;;;0.25;0.25;;;10.90;99.90;;;;;;4915375;29;20232;-73
2023/12/24 12:28:30;;;;;;;0.77;0.40;;;10.90;99.90;;;;;;4916566;29;20229;-73
2023/12/24 12:30:57;;;;;;;0.50;0.50;;;10.90;99.90;;;;;;4915065;29;20747;-74
2023/12/24 12:33:24;;;;;;;0.50;0.50;;;10.90;99.90;;;;;;4920794;29;20248;-73
2023/12/24 12:35:52;;;;;;;0.40;0.40;;;11.00;99.90;;;;;;4917159;29;20225;-73
2023/12/24 12:38:19;;;;;;;0.28;0.28;;;11.00;99.90;;;;;;4916461;29;20217;-73
2023/12/24 12:40:46;;;;;;;0.38;0.38;;;11.00;99.90;;;;;;4924569;29;20240;-73
2023/12/24 12:43:12;;;;;;;0.40;0.40;;;11.00;99.90;;;;;;4919569;29;20205;-74
2023/12/24 12:45:39;;;;;;;0.40;0.40;;;11.00;99.90;;;;;;4929597;29;20210;-73
2023/12/24 12:48:06;;;;;;;0.30;0.30;;;11.00;99.90;;;;;;4924564;29;20241;-73
2023/12/24 12:50:33;;;;;;;0.40;0.40;;;11.00;99.90;;;;;;4919834;29;20244;-74
2023/12/24 12:53:01;;;;;;;0.40;0.40;;;11.10;99.90;;;;;;4919723;29;20535;-74
2023/12/24 12:55:30;;;;;;;0.22;0.22;;;11.00;99.90;;;;;;4920963;29;20272;-73
2023/12/24 12:57:57;;;;;;;0.40;0.40;;;11.00;99.90;;;;;;4914460;29;20739;-73
2023/12/24 13:00:24;;;;;;;0.23;0.23;;;11.10;99.90;;;;;;4917187;29;20289;-73
2023/12/24 13:02:51;;;;;;;0.20;0.20;;;11.00;99.90;;;;;;4921149;29;20492;-73
2023/12/24 13:05:29;;;;;;;0.30;0.30;;;11.10;99.90;;;;;;4929323;29;20213;-73
2023/12/24 13:07:56;;;;;;;0.30;0.30;;;11.00;99.90;;;;;;4926948;29;20228;-76
2023/12/24 13:10:32;;;;;;;0.43;0.43;;;11.10;99.90;;;;;;4925851;29;20629;-75
2023/12/24 13:13:17;;;;;;;0.30;0.30;;;11.10;99.90;;;;;;4921434;29;20210;-74
2023/12/24 13:15:45;;;;;;;0.55;0.55;;;11.10;99.90;;;;;;4930322;29;20210;-73
2023/12/24 13:18:19;;;;;;;0.35;0.35;;;11.10;99.90;;;;;;4929759;29;20261;-74
2023/12/24 13:20:49;;;;;;;0.40;0.40;;;11.10;99.90;;;;;;4929032;29;20648;-73
2023/12/24 13:23:16;;;;;;;0.30;0.30;;;11.10;99.90;;;;;;4924273;29;20570;-75
2023/12/24 13:25:45;;;;;;;0.82;0.20;;;11.10;99.90;;;;;;4928947;29;20209;-73
2023/12/24 13:28:12;;;;;;;0.22;0.22;;;11.10;99.90;;;;;;4925889;29;20321;-75
2023/12/24 13:30:39;;;;;;;0.40;0.40;;;11.10;99.90;;;;;;4927189;29;20237;-74
2023/12/24 13:33:06;;;;;;;3.30;0.68;;;11.10;99.90;;;;;;4926166;29;20666;-74
2023/12/24 13:35:35;;;;;;;1.10;1.10;;;11.20;99.90;;;;;;4917792;29;20238;-74
2023/12/24 13:38:03;;;;;;;0.40;0.40;;;11.10;99.90;;;;;;4917567;29;20209;-74
2023/12/24 13:40:30;;;;;;;0.30;0.30;;;11.20;99.90;;;;;;4930257;29;20285;-74
2023/12/24 13:42:58;;;;;;;0.93;0.30;;;11.20;99.90;;;;;;4918931;29;20670;-74
2023/12/24 13:45:25;;;;;;;0.50;0.50;;;11.20;99.90;;;;;;4920364;29;20201;-73
2023/12/24 13:47:51;;;;;;;0.70;0.70;;;11.20;99.90;;;;;;4922824;29;20476;-75
2023/12/24 13:50:18;;;;;;;0.30;0.30;;;11.30;99.90;;;;;;4921325;29;20241;-74
2023/12/24 13:52:45;;;;;;;0.40;0.23;;;11.30;99.90;;;;;;4923216;29;20470;-74
2023/12/24 13:55:12;;;;;;;0.60;0.60;;;11.30;99.90;;;;;;4915789;29;20952;-73
2023/12/24 13:57:38;;;;;;;0.50;0.50;;;11.30;99.90;;;;;;4923585;29;20553;-74
2023/12/24 14:00:08;;;;;;;0.20;0.20;;;11.30;99.90;;;;;;4923126;29;20467;-74
2023/12/24 14:02:35;;;;;;;0.60;0.60;;;11.30;99.90;;;;;;4920187;29;20845;-75
2023/12/24 14:05:03;;;;;;;0.38;0.38;;;11.30;99.90;;;;;;4926347;29;20823;-76
2023/12/24 14:07:30;;;;;;;0.30;0.30;;;11.30;99.90;;;;;;4922115;29;20234;-73
2023/12/24 14:09:57;;;;;;;1.38;0.55;;;11.30;99.90;;;;;;4923934;29;20293;-74
2023/12/24 14:12:24;;;;;;;0.60;0.60;;;11.30;99.90;;;;;;4931453;29;20233;-73
2023/12/24 14:14:51;;;;;;;0.63;0.63;;;11.30;99.90;;;;;;4927831;29;20201;-74
2023/12/24 14:17:19;;;;;;;0.30;0.30;;;11.30;99.90;;;;;;4923221;29;20211;-74
2023/12/24 14:19:47;;;;;;;0.50;0.50;;;11.30;99.90;;;;;;4923350;29;20206;-74
2023/12/24 14:22:14;;;;;;;0.50;0.50;;;11.30;99.90;;;;;;4932212;29;20259;-73
2023/12/24 14:24:41;;;;;;;0.38;0.35;;;11.30;99.90;;;;;;4919909;29;20229;-72
2023/12/24 14:27:07;;;;;;;0.73;0.45;;;11.30;99.90;;;;;;4929216;29;20220;-72
2023/12/24 14:29:34;;;;;;;0.30;0.30;;;11.30;99.90;;;;;;4930609;29;20211;-73
2023/12/24 14:32:01;;;;;;;0.30;0.30;;;11.30;99.90;;;;;;4925155;29;20485;-71
2023/12/24 14:34:29;;;;;;;0.70;0.70;;;11.30;99.90;;;;;;4933045;29;20239;-74
2023/12/24 14:36:56;;;;;;;0.38;0.38;;;11.30;99.90;;;;;;4930943;29;20499;-73
2023/12/24 14:39:23;;;;;;;0.50;0.40;;;11.30;99.90;;;;;;4930630;29;20201;-72
2023/12/24 14:41:50;;;;;;;0.75;0.65;;;11.30;99.90;;;;;;4923639;29;20552;-73
2023/12/24 14:44:16;;;;;;;0.50;0.50;;;11.30;99.90;;;;;;4925900;29;20207;-73
2023/12/24 14:46:44;;;;;;;0.30;0.30;;;11.30;99.90;;;;;;4917489;29;20474;-73
2023/12/24 14:49:10;;;;;;;0.40;0.40;;;11.30;99.90;;;;;;4922926;29;20502;-73
2023/12/24 14:51:38;;;;;;;0.50;0.50;;;11.30;99.90;;;;;;4924104;29;20949;-73
2023/12/24 14:54:06;;;;;;;0.30;0.30;;;11.30;99.90;;;;;;4927467;29;20209;-73
2023/12/24 14:56:33;;;;;;;0.30;0.30;;;11.40;99.90;;;;;;4918665;29;20207;-73
2023/12/24 14:59:00;;;;;;;0.40;0.40;;;11.40;99.90;;;;;;4928341;29;20672;-72
2023/12/24 15:01:27;;;;;;;0.60;0.60;;;11.40;99.90;;;;;;4920803;29;20497;-73
2023/12/24 15:03:54;;;;;;;0.50;0.50;;;11.40;99.90;;;;;;4919912;29;20871;-74
2023/12/24 15:06:21;;;;;;;0.20;0.20;;;11.40;99.90;;;;;;4920390;29;20297;-74
2023/12/24 15:08:50;;;;;;;0.27;0.27;;;11.40;99.90;;;;;;4928524;29;20248;-73
2023/12/24 15:11:18;;;;;;;0.40;0.40;;;11.40;99.90;;;;;;4932529;29;20492;-72
2023/12/24 15:13:45;;;;;;;0.40;0.40;;;11.30;99.90;;;;;;4928021;29;20685;-72
2023/12/24 15:16:11;;;;;;;0.70;0.70;;;11.40;99.90;;;;;;4919250;29;20477;-72
2023/12/24 15:18:39;;;;;;;0.40;0.40;;;11.40;99.90;;;;;;4917651;29;20700;-73
2023/12/24 15:21:06;;;;;;;0.33;0.33;;;11.40;99.90;;;;;;4927183;29;20400;-73
2023/12/24 15:23:33;;;;;;;1.37;0.80;;;11.30;99.90;;;;;;4918915;29;20557;-72
2023/12/24 15:26:01;;;;;;;1.50;0.43;;;11.30;99.90;;;;;;4925640;29;20470;-73
2023/12/24 15:28:27;;;;;;;0.40;0.40;;;11.30;99.90;;;;;;4916288;29;20508;-73
2023/12/24 15:30:54;;;;;;;0.20;0.20;;;11.30;99.90;;;;;;4917157;29;20241;-73
2023/12/24 15:33:21;;;;;;;0.38;0.38;;;11.30;99.90;;;;;;4926972;29;20569;-72
2023/12/24 15:35:47;;;;;;;0.40;0.40;;;11.30;99.90;;;;;;4930135;29;20202;-73
2023/12/24 15:38:14;;;;;;;0.70;0.70;;;11.30;99.90;;;;;;4923240;29;20214;-72
2023/12/24 15:40:41;;;;;;;0.50;0.50;;;11.30;99.90;;;;;;4919488;29;20486;-73
2023/12/24 15:43:09;;;;;;;0.30;0.30;;;11.30;99.90;;;;;;4929346;29;20209;-73
2023/12/24 15:45:36;;;;;;;0.70;0.40;;;11.30;99.90;;;;;;4930359;29;20216;-73
2023/12/24 15:48:03;;;;;;;0.30;0.30;;;11.30;99.90;;;;;;4927008;29;20218;-73
2023/12/24 15:50:30;;;;;;;0.28;0.28;;;11.30;99.90;;;;;;4923668;29;20350;-72
2023/12/24 15:52:57;;;;;;;0.47;0.47;;;11.30;99.90;;;;;;4927573;29;20208;-73
2023/12/24 15:55:23;;;;;;;0.40;0.35;;;11.40;99.90;;;;;;4925666;29;20481;-73
2023/12/24 15:57:50;;;;;;;0.20;0.20;;;11.40;99.90;;;;;;4927344;29;20217;-73
2023/12/24 16:00:19;;;;;;;0.30;0.30;;;11.40;99.90;;;;;;4933024;29;20829;-73
2023/12/24 16:02:46;;;;;;;0.30;0.30;;;11.40;99.90;;;;;;4925644;29;20493;-72
2023/12/24 16:05:13;;;;;;;0.28;0.28;;;11.40;99.90;;;;;;4928147;29;20209;-72
2023/12/24 16:07:40;;;;;;;0.30;0.30;;;11.40;99.90;;;;;;4923795;29;20294;-73
2023/12/24 16:10:08;;;;;;;0.38;0.38;;;11.40;99.90;;;;;;4921105;29;20219;-72
2023/12/24 16:12:34;;;;;;;0.40;0.40;;;11.40;99.90;;;;;;4921296;29;20229;-72
2023/12/24 16:15:01;;;;;;;0.20;0.20;;;11.50;99.90;;;;;;4918839;29;20706;-73
2023/12/24 16:17:29;;;;;;;0.20;0.20;;;11.40;99.90;;;;;;4920416;29;20478;-74
2023/12/24 16:19:56;;;;;;;0.20;0.20;;;11.40;99.90;;;;;;4916271;29;21005;-73
2023/12/24 16:22:23;;;;;;;1.10;0.60;;;11.50;99.90;;;;;;4929855;29;20244;-72
2023/12/24 16:24:51;;;;;;;0.35;0.35;;;11.50;99.90;;;;;;4921238;29;20234;-72
2023/12/24 16:27:19;;;;;;;0.40;0.40;;;11.50;99.90;;;;;;4924547;29;20220;-73
2023/12/24 16:29:46;;;;;;;0.20;0.20;;;11.50;99.90;;;;;;4933595;29;20608;-73
2023/12/24 16:32:14;;;;;;;0.40;0.40;;;11.50;99.90;;;;;;4929279;29;20237;-72
2023/12/24 16:34:42;;;;;;;0.43;0.43;;;11.50;99.90;;;;;;4922902;29;20273;-72
2023/12/24 16:37:08;;;;;;;0.77;0.77;;;11.60;99.90;;;;;;4923025;29;20213;-73
2023/12/24 16:39:35;;;;;;;0.50;0.50;;;11.60;99.90;;;;;;4918509;29;20201;-73
2023/12/24 16:42:02;;;;;;;1.13;0.50;;;11.60;99.90;;;;;;4922206;29;20226;-73
2023/12/24 16:44:28;;;;;;;0.50;0.50;;;11.60;99.90;;;;;;4923615;29;20474;-73
2023/12/24 16:46:55;;;;;;;0.60;0.60;;;11.60;99.90;;;;;;4927397;29;20233;-73
2023/12/24 16:49:22;;;;;;;0.70;0.70;;;11.70;99.90;;;;;;4925465;29;20226;-72
2023/12/24 16:51:50;;;;;;;0.50;0.50;;;11.70;99.90;;;;;;4927562;29;20886;-73
2023/12/24 16:54:17;;;;;;;0.40;0.40;;;11.70;99.90;;;;;;4929628;29;20481;-73
2023/12/24 16:56:44;;;;;;;0.20;0.20;;;11.70;99.90;;;;;;4925935;29;20989;-72
2023/12/24 16:59:11;;;;;;;0.40;0.40;;;11.80;99.90;;;;;;4933118;29;20465;-72
2023/12/24 17:01:37;;;;;;;0.30;0.30;;;11.80;99.90;;;;;;4922931;29;20248;-73
2023/12/24 17:04:04;;;;;;;0.85;0.85;;;11.80;99.90;;;;;;4921756;29;20469;-74
2023/12/24 17:06:31;;;;;;;0.30;0.30;;;11.80;99.90;;;;;;4928635;29;20214;-74
2023/12/24 17:08:59;;;;;;;0.30;0.30;;;11.80;99.90;;;;;;4925544;29;20485;-73
2023/12/24 17:11:26;;;;;;;0.40;0.40;;;11.80;99.90;;;;;;4930199;29;20293;-74
2023/12/24 17:13:53;;;;;;;0.40;0.40;;;11.90;99.90;;;;;;4925285;29;20469;-73
2023/12/24 17:16:19;;;;;;;0.35;0.35;;;11.90;99.90;;;;;;4925164;29;20486;-74
2023/12/24 17:18:46;;;;;;;0.43;0.43;;;11.90;99.90;;;;;;4923020;29;20199;-73
2023/12/24 17:21:13;;;;;;;0.57;0.57;;;11.80;99.90;;;;;;4918350;29;20239;-72
2023/12/24 17:23:39;;;;;;;0.73;0.73;;;11.80;99.90;;;;;;4931545;29;20471;-73
2023/12/24 17:26:07;;;;;;;0.50;0.50;;;11.90;99.90;;;;;;4924225;29;20573;-73
2023/12/24 17:28:34;;;;;;;0.30;0.30;;;11.80;99.90;;;;;;4919023;29;20237;-73
2023/12/24 17:31:01;;;;;;;0.40;0.40;;;11.80;99.90;;;;;;4920951;29;20226;-75
2023/12/24 17:33:28;;;;;;;0.45;0.45;;;11.80;99.90;;;;;;4920882;29;20677;-73
2023/12/24 17:35:55;;;;;;;1.23;0.87;;;11.80;99.90;;;;;;4917670;29;20213;-73
2023/12/24 17:38:21;;;;;;;0.60;0.60;;;11.80;99.90;;;;;;4915897;29;20458;-73
2023/12/24 17:40:48;;;;;;;0.70;0.70;;;11.70;99.90;;;;;;4921959;29;20924;-72
2023/12/24 17:43:16;;;;;;;0.60;0.60;;;11.80;99.90;;;;;;4925049;29;20222;-74
2023/12/24 17:45:43;;;;;;;0.60;0.60;;;11.80;99.90;;;;;;4919106;29;20481;-72
2023/12/24 17:48:11;;;;;;;0.40;0.40;;;11.80;99.90;;;;;;4922023;29;20225;-73
2023/12/24 17:50:37;;;;;;;0.60;0.60;;;11.80;99.90;;;;;;4914215;29;20222;-73
2023/12/24 17:53:03;;;;;;;1.60;0.70;;;11.90;99.90;;;;;;4924609;29;20231;-73